createdAt,value
2022-12-12T00:02:46.129Z,10.93
2022-12-12T00:05:49.533Z,10.13
2022-12-12T00:08:55.713Z,10.50
2022-12-12T00:12:06.597Z,11.15
2022-12-12T00:15:12.423Z,11.50
2022-12-12T00:18:17.920Z,10.07
2022-12-12T00:21:24.251Z,10.98
2022-12-12T00:24:28.178Z,11.30
2022-12-12T00:27:35.058Z,10.50
2022-12-12T00:30:39.253Z,11.48
2022-12-12T00:33:43.617Z,9.88
2022-12-12T00:36:48.770Z,11.73
2022-12-12T00:39:51.582Z,11.50
2022-12-12T00:42:55.809Z,11.73
2022-12-12T00:45:59.776Z,10.00
2022-12-12T00:49:03.795Z,11.93
2022-12-12T00:52:06.580Z,10.65
2022-12-12T00:55:13.879Z,10.70
2022-12-12T00:58:16.606Z,11.45
2022-12-12T01:01:23.483Z,12.90
2022-12-12T01:04:27.139Z,11.30
2022-12-12T01:07:31.874Z,17.15
2022-12-12T01:10:35.306Z,12.05
2022-12-12T01:13:38.803Z,11.95
2022-12-12T01:16:41.236Z,12.70
2022-12-12T01:19:43.932Z,13.30
2022-12-12T01:22:46.985Z,13.45
2022-12-12T01:25:50.977Z,14.65
2022-12-12T01:28:54.943Z,12.95
2022-12-12T01:31:58.150Z,12.50
2022-12-12T01:35:01.042Z,14.15
2022-12-12T01:38:03.802Z,13.30
2022-12-12T01:41:08.138Z,16.05
2022-12-12T01:44:40.203Z,13.65
2022-12-12T01:47:47.131Z,13.70
2022-12-12T01:50:51.098Z,15.02
2022-12-12T01:54:05.879Z,13.10
2022-12-12T01:57:16.496Z,11.63
2022-12-12T02:00:21.710Z,14.15
2022-12-12T02:03:26.644Z,12.82
2022-12-12T02:06:30.846Z,11.68
2022-12-12T02:09:36.006Z,13.25
2022-12-12T02:12:38.827Z,12.68
2022-12-12T02:16:11.907Z,12.73
2022-12-12T02:19:38.119Z,12.75
2022-12-12T02:22:53.916Z,13.70
2022-12-12T02:26:04.523Z,11.85
2022-12-12T02:29:52.267Z,11.73
2022-12-12T02:33:41.210Z,13.15
2022-12-12T02:37:10.184Z,14.77
2022-12-12T02:40:25.117Z,13.18
2022-12-12T02:43:41.254Z,11.60
2022-12-12T02:46:57.120Z,13.02
2022-12-12T02:50:08.408Z,12.48
2022-12-12T02:53:11.824Z,13.13
2022-12-12T02:56:45.449Z,13.85
2022-12-12T03:00:16.411Z,14.05
2022-12-12T03:04:03.457Z,17.20
2022-12-12T03:07:27.403Z,13.52
2022-12-12T03:10:32.604Z,15.15
2022-12-12T03:13:54.076Z,14.73
2022-12-12T03:17:11.475Z,13.43
2022-12-12T03:20:22.828Z,12.90
2022-12-12T03:23:32.742Z,14.90
2022-12-12T03:26:55.946Z,16.20
2022-12-12T03:30:05.526Z,13.80
2022-12-12T03:33:19.686Z,12.68
2022-12-12T03:36:27.486Z,15.50
2022-12-12T03:39:50.917Z,14.65
2022-12-12T03:43:08.515Z,16.60
2022-12-12T03:46:43.518Z,12.05
2022-12-12T03:50:15.963Z,13.70
2022-12-12T03:53:41.805Z,13.90
2022-12-12T03:56:56.313Z,14.00
2022-12-12T04:03:40.926Z,14.35
2022-12-12T04:07:00.978Z,14.85
2022-12-12T04:10:23.522Z,13.93
2022-12-12T04:13:51.971Z,12.05
2022-12-12T04:17:00.940Z,12.20
2022-12-12T04:20:50.677Z,10.40
2022-12-12T04:23:59.226Z,11.85
2022-12-12T04:27:16.635Z,10.88
2022-12-12T04:30:19.432Z,13.07
2022-12-12T04:33:29.639Z,13.43
2022-12-12T04:36:34.462Z,9.50
2022-12-12T04:39:41.402Z,12.82
2022-12-12T04:43:10.316Z,9.75
2022-12-12T04:46:21.709Z,11.95
2022-12-12T04:49:29.644Z,13.43
2022-12-12T04:52:35.563Z,10.65
2022-12-12T04:56:27.723Z,11.98
2022-12-12T04:59:31.764Z,10.88
2022-12-12T05:02:45.460Z,9.75
2022-12-12T05:06:14.630Z,10.50
2022-12-12T05:09:37.889Z,9.75
2022-12-12T05:15:51.077Z,12.73
2022-12-12T05:18:53.943Z,13.65
2022-12-12T05:22:16.451Z,12.35
2022-12-12T05:25:39.064Z,12.57
2022-12-12T05:28:41.710Z,11.65
2022-12-12T05:31:44.730Z,15.63
2022-12-12T05:34:47.029Z,14.35
2022-12-12T05:37:57.733Z,12.75
2022-12-12T05:41:05.425Z,12.37
2022-12-12T05:44:08.973Z,12.57
2022-12-12T05:47:11.494Z,14.45
2022-12-12T05:50:14.771Z,11.27
2022-12-12T05:53:17.535Z,16.98
2022-12-12T05:56:20.751Z,16.23
2022-12-12T05:59:42.435Z,14.23
2022-12-12T06:03:03.790Z,13.10
2022-12-12T06:06:12.735Z,13.80
2022-12-12T06:09:15.848Z,14.55
2022-12-12T06:12:20.321Z,13.32
2022-12-12T06:15:35.520Z,15.32
2022-12-12T06:18:53.378Z,14.90
2022-12-12T06:21:56.312Z,12.98
2022-12-12T06:25:00.074Z,12.52
2022-12-12T06:28:03.879Z,13.45
2022-12-12T06:31:12.151Z,18.02
2022-12-12T06:34:15.054Z,17.65
2022-12-12T06:40:49.374Z,13.98
2022-12-12T06:44:00.722Z,12.13
2022-12-12T06:47:03.636Z,17.17
2022-12-12T06:50:07.080Z,15.20
2022-12-12T06:53:10.622Z,17.45
2022-12-12T06:56:19.959Z,16.45
2022-12-12T06:59:22.542Z,12.32
2022-12-12T07:02:29.664Z,14.30
2022-12-12T07:05:33.215Z,12.63
2022-12-12T07:08:36.795Z,19.23
2022-12-12T07:11:40.771Z,16.58
2022-12-12T07:14:43.792Z,16.15
2022-12-12T07:17:47.689Z,16.80
2022-12-12T07:23:53.775Z,12.48
2022-12-12T07:26:58.800Z,12.80
2022-12-12T07:30:02.210Z,16.17
2022-12-12T07:33:11.332Z,15.55
2022-12-12T07:36:17.666Z,15.57
2022-12-12T07:39:24.278Z,15.43
2022-12-12T07:42:26.668Z,12.98
2022-12-12T07:45:30.885Z,14.45
2022-12-12T07:48:44.159Z,14.15
2022-12-12T07:51:59.780Z,14.87
2022-12-12T07:55:07.722Z,15.63
2022-12-12T07:58:11.987Z,15.07
2022-12-12T08:01:25.724Z,13.80
2022-12-12T08:04:35.620Z,16.42
2022-12-12T08:07:38.703Z,11.75
2022-12-12T08:10:42.011Z,11.27
2022-12-12T08:14:02.274Z,13.57
2022-12-12T08:17:06.501Z,11.05
2022-12-12T08:23:20.762Z,11.65
2022-12-12T08:26:25.972Z,11.52
2022-12-12T08:29:38.841Z,12.10
2022-12-12T08:32:42.562Z,17.00
2022-12-12T08:35:55.669Z,10.52
2022-12-12T08:39:17.628Z,12.52
2022-12-12T08:42:22.558Z,11.45
2022-12-12T08:45:34.074Z,11.27
2022-12-12T08:48:47.371Z,12.02
2022-12-12T08:52:21.713Z,9.13
2022-12-12T08:55:36.847Z,10.85
2022-12-12T08:58:43.546Z,11.10
2022-12-12T09:02:07.869Z,10.13
2022-12-12T09:05:11.698Z,13.13
2022-12-12T09:08:26.209Z,8.40
2022-12-12T09:11:31.145Z,11.25
2022-12-12T09:14:37.931Z,8.65
2022-12-12T09:17:59.316Z,13.20
2022-12-12T09:21:19.498Z,9.90
2022-12-12T09:27:49.665Z,9.82
2022-12-12T09:30:53.715Z,9.98
2022-12-12T09:34:06.660Z,8.95
2022-12-12T09:37:21.487Z,10.13
2022-12-12T09:41:15.729Z,9.63
2022-12-12T09:47:55.822Z,8.30
2022-12-12T09:51:27.620Z,10.15
2022-12-12T09:54:50.743Z,9.57
2022-12-12T10:05:25.315Z,11.12
2022-12-12T10:09:04.765Z,10.55
2022-12-12T10:15:45.936Z,11.15
2022-12-12T10:19:56.326Z,8.90
2022-12-12T10:23:54.403Z,8.93
2022-12-12T10:27:19.027Z,10.18
2022-12-12T10:30:57.130Z,9.20
2022-12-12T10:34:47.840Z,10.02
2022-12-12T10:38:28.704Z,9.70
2022-12-12T10:42:06.671Z,10.55
2022-12-12T10:46:03.946Z,11.23
2022-12-12T10:49:20.065Z,15.52
2022-12-12T10:52:37.633Z,8.80
2022-12-12T10:56:03.432Z,10.52
2022-12-12T11:02:44.452Z,9.88
2022-12-12T11:06:02.244Z,9.90
2022-12-12T11:09:41.525Z,12.90
2022-12-12T11:13:22.481Z,10.27
2022-12-12T11:16:31.199Z,9.55
2022-12-12T11:19:38.797Z,9.93
2022-12-12T11:22:41.154Z,9.63
2022-12-12T11:25:45.208Z,10.70
2022-12-12T11:29:11.092Z,9.07
2022-12-12T11:32:26.043Z,11.45
2022-12-12T11:35:43.901Z,8.85
2022-12-12T11:38:59.265Z,8.98
2022-12-12T11:42:13.842Z,8.50
2022-12-12T11:45:23.411Z,15.30
2022-12-12T11:48:37.154Z,9.80
2022-12-12T11:51:43.422Z,7.30
2022-12-12T11:54:46.442Z,9.52
2022-12-12T11:58:04.748Z,7.78
2022-12-12T12:01:17.493Z,7.80
2022-12-12T12:04:53.507Z,12.18
2022-12-12T12:08:02.235Z,7.62
2022-12-12T12:11:07.595Z,7.25
2022-12-12T12:14:47.268Z,8.30
2022-12-12T12:18:31.502Z,11.90
2022-12-12T12:21:44.784Z,8.15
2022-12-12T12:25:20.783Z,7.80
2022-12-12T12:29:02.241Z,8.65
2022-12-12T12:32:38.295Z,11.73
2022-12-12T12:35:44.869Z,8.90
2022-12-12T12:39:28.599Z,8.43
2022-12-12T12:42:58.941Z,8.77
2022-12-12T12:46:33.343Z,10.35
2022-12-12T12:49:48.808Z,9.45
2022-12-12T12:53:04.462Z,9.50
2022-12-12T12:56:44.057Z,12.05
2022-12-12T12:59:53.742Z,8.93
2022-12-12T13:03:27.413Z,9.48
2022-12-12T13:07:28.221Z,7.60
2022-12-12T13:10:34.394Z,9.75
2022-12-12T13:13:43.373Z,7.43
2022-12-12T13:16:52.774Z,10.75
2022-12-12T13:20:10.841Z,11.10
2022-12-12T13:24:04.224Z,8.60
2022-12-12T13:27:21.550Z,9.52
2022-12-12T13:30:54.282Z,9.93
2022-12-12T13:34:12.936Z,15.10
2022-12-12T13:37:19.656Z,8.50
2022-12-12T13:40:39.549Z,7.85
2022-12-12T13:44:02.127Z,6.93
2022-12-12T13:47:16.319Z,8.68
2022-12-12T13:50:25.673Z,8.13
2022-12-12T13:53:30.009Z,11.93
2022-12-12T14:03:39.687Z,8.73
2022-12-12T14:06:46.212Z,9.32
2022-12-12T14:09:55.679Z,9.18
2022-12-12T14:13:28.989Z,8.23
2022-12-12T14:17:13.542Z,7.45
2022-12-12T14:20:46.502Z,8.50
2022-12-12T14:24:35.944Z,7.72
2022-12-12T14:28:18.559Z,10.32
2022-12-12T14:31:34.829Z,7.22
2022-12-12T14:35:13.580Z,8.73
2022-12-12T14:38:57.231Z,10.38
2022-12-12T14:42:16.789Z,12.73
2022-12-12T14:45:39.802Z,8.88
2022-12-12T14:48:45.571Z,7.55
2022-12-12T14:52:04.858Z,9.85
2022-12-12T14:59:07.933Z,8.32
2022-12-12T15:02:32.771Z,9.15
2022-12-12T15:06:33.787Z,8.85
2022-12-12T15:10:19.258Z,6.43
2022-12-12T15:13:29.639Z,10.70
2022-12-12T15:16:42.816Z,10.02
2022-12-12T15:20:32.540Z,11.40
2022-12-12T15:23:41.738Z,8.32
2022-12-12T15:26:56.875Z,7.22
2022-12-12T15:30:14.288Z,9.05
2022-12-12T15:33:39.854Z,11.52
2022-12-12T15:37:00.732Z,11.73
2022-12-12T15:44:10.901Z,10.77
2022-12-12T15:51:03.046Z,9.82
2022-12-12T15:54:26.170Z,14.52
2022-12-12T16:01:31.850Z,10.15
2022-12-12T16:08:48.559Z,10.02
2022-12-12T16:12:00.124Z,10.20
2022-12-12T16:15:20.855Z,9.02
2022-12-12T16:18:24.867Z,15.68
2022-12-12T16:21:28.009Z,9.43
2022-12-12T16:24:30.937Z,10.45
2022-12-12T16:27:34.963Z,8.80
2022-12-12T16:30:49.953Z,9.95
2022-12-12T16:33:54.238Z,9.75
2022-12-12T16:36:57.202Z,8.05
2022-12-12T16:39:59.554Z,8.13
2022-12-12T16:43:09.399Z,9.20
2022-12-12T16:46:19.914Z,7.30
2022-12-12T16:49:25.759Z,5.57
2022-12-12T16:52:28.247Z,7.47
2022-12-12T16:55:31.096Z,9.77
2022-12-12T16:58:34.066Z,8.68
2022-12-12T17:01:38.871Z,7.70
2022-12-12T17:04:41.487Z,8.38
2022-12-12T17:07:44.462Z,8.73
2022-12-12T17:10:49.956Z,6.68
2022-12-12T17:13:53.057Z,8.18
2022-12-12T17:16:56.244Z,9.77
2022-12-12T17:20:00.917Z,8.05
2022-12-12T17:26:23.647Z,7.82
2022-12-12T17:29:29.041Z,8.63
2022-12-12T17:32:31.626Z,9.02
2022-12-12T17:35:34.290Z,7.65
2022-12-12T17:38:39.057Z,12.73
2022-12-12T17:41:45.493Z,8.38
2022-12-12T17:44:48.760Z,10.05
2022-12-12T17:47:51.703Z,8.82
2022-12-12T17:51:08.718Z,9.60
2022-12-12T17:54:11.754Z,10.43
2022-12-12T17:57:15.174Z,8.48
2022-12-12T18:00:21.663Z,10.68
2022-12-12T18:03:26.640Z,12.23
2022-12-12T18:06:33.411Z,8.85
2022-12-12T18:09:36.536Z,10.82
2022-12-12T18:12:46.811Z,11.50
2022-12-12T18:15:59.769Z,9.65
2022-12-12T18:19:03.755Z,10.98
2022-12-12T18:22:07.156Z,10.25
2022-12-12T18:25:09.788Z,10.15
2022-12-12T18:28:12.883Z,16.60
2022-12-12T18:34:33.185Z,12.15
2022-12-12T18:37:38.065Z,11.63
2022-12-12T18:40:48.884Z,10.80
2022-12-12T18:43:51.670Z,12.32
2022-12-12T18:47:02.849Z,11.73
2022-12-12T18:50:08.960Z,8.98
2022-12-12T18:53:16.592Z,10.35
2022-12-12T18:56:26.006Z,9.93
2022-12-12T18:59:30.919Z,9.50
2022-12-12T19:02:40.130Z,9.85
2022-12-12T19:05:44.692Z,9.68
2022-12-12T19:08:48.551Z,11.02
2022-12-12T19:12:00.047Z,11.88
2022-12-12T19:15:16.790Z,10.55
2022-12-12T19:18:23.345Z,11.60
2022-12-12T19:21:27.616Z,10.25
2022-12-12T19:24:31.579Z,11.25
2022-12-12T19:27:34.209Z,9.98
2022-12-12T19:30:41.972Z,9.50
2022-12-12T19:33:46.295Z,11.40
2022-12-12T19:36:50.064Z,10.27
2022-12-12T19:39:54.718Z,10.73
2022-12-12T19:42:58.105Z,10.63
2022-12-12T19:46:11.254Z,10.52
2022-12-12T19:49:16.742Z,14.23
2022-12-12T19:52:20.444Z,15.90
2022-12-12T19:55:24.611Z,11.90
2022-12-12T19:58:31.480Z,10.23
2022-12-12T20:01:39.039Z,11.00
2022-12-12T20:04:50.593Z,14.68
2022-12-12T20:08:01.266Z,11.07
2022-12-12T20:11:26.482Z,10.63
2022-12-12T20:14:34.477Z,11.40
2022-12-12T20:21:02.095Z,10.73
2022-12-12T20:24:10.622Z,10.23
2022-12-12T20:27:21.921Z,8.88
2022-12-12T20:30:32.365Z,9.57
2022-12-12T20:33:36.586Z,11.27
2022-12-12T20:36:52.443Z,11.48
2022-12-12T20:39:55.047Z,11.52
2022-12-12T20:43:03.749Z,12.30
2022-12-12T20:46:15.016Z,11.02
2022-12-12T20:49:22.162Z,10.40
2022-12-12T20:52:26.551Z,9.50
2022-12-12T20:55:32.130Z,10.85
2022-12-12T20:58:36.962Z,10.75
2022-12-12T21:01:40.270Z,11.23
2022-12-12T21:04:44.994Z,10.67
2022-12-12T21:07:50.035Z,10.65
2022-12-12T21:10:53.599Z,11.65
2022-12-12T21:14:05.126Z,11.60
2022-12-12T21:17:09.350Z,11.05
2022-12-12T21:20:16.253Z,15.88
2022-12-12T21:26:33.208Z,8.10
2022-12-12T21:29:38.739Z,10.48
2022-12-12T21:32:46.898Z,12.20
2022-12-12T21:35:50.656Z,9.70
2022-12-12T21:38:56.173Z,10.35
2022-12-12T21:42:00.329Z,10.60
2022-12-12T21:45:03.962Z,9.38
2022-12-12T21:48:08.208Z,10.48
2022-12-12T21:51:17.286Z,9.18
2022-12-12T21:54:25.579Z,10.23
2022-12-12T21:57:29.285Z,12.27
2022-12-12T22:00:42.639Z,10.35
2022-12-12T22:03:53.723Z,10.27
2022-12-12T22:07:00.576Z,11.43
2022-12-12T22:10:11.119Z,11.18
2022-12-12T22:13:14.837Z,9.50
2022-12-12T22:16:20.467Z,11.60
2022-12-12T22:19:22.874Z,12.07
2022-12-12T22:22:33.361Z,10.25
2022-12-12T22:25:37.001Z,10.32
2022-12-12T22:28:45.605Z,10.25
2022-12-12T22:32:01.759Z,10.10
2022-12-12T22:35:14.515Z,10.68
2022-12-12T22:38:38.418Z,8.63
2022-12-12T22:41:54.921Z,9.60
2022-12-12T22:45:06.466Z,9.95
2022-12-12T22:48:12.267Z,11.05
2022-12-12T22:51:21.570Z,11.50
2022-12-12T22:54:27.989Z,10.32
2022-12-12T22:57:31.593Z,12.13
2022-12-12T23:03:40.069Z,13.62
2022-12-12T23:06:45.881Z,13.10
2022-12-12T23:09:53.280Z,13.40
2022-12-12T23:13:06.669Z,12.60
2022-12-12T23:16:19.799Z,12.93
2022-12-12T23:19:26.043Z,14.43
2022-12-12T23:22:28.546Z,13.10
2022-12-12T23:25:31.349Z,14.43
2022-12-12T23:28:36.591Z,15.05
2022-12-12T23:31:41.764Z,17.62
2022-12-12T23:34:45.533Z,20.37
2022-12-12T23:37:50.211Z,14.57
2022-12-12T23:40:52.532Z,16.12
2022-12-12T23:43:56.798Z,13.70
2022-12-12T23:46:59.607Z,13.77
2022-12-12T23:50:02.124Z,15.85
2022-12-12T23:53:10.363Z,15.95
2022-12-12T23:56:14.488Z,14.60
2022-12-12T23:59:18.765Z,14.68
